PADK

Adak Airport

Airport
ICAO code
PADK
IATA Code
ADK
Summary
ICAO Region
NAM
ICAO Territory
Location

Adak Island, Alaska

Serving
Adak Island
Elevation
18 ft
Coordinates
51° 52' 41" N , 176° 38' 46" W
KCC
Airport BS
Bird Strike
Non Avian Wildlife Hazards to Aircraft
Airport WX
Fog
Metar
Observation
PADK 031756Z AUTO 26011G20KT SCT020 BKN029 OVC110 02/01 A2929 RMK AO2 WSHFT 1643 SLP917 P0001 60013 T00170006 10017 20000 56018 PWINO FZRANO $
Station
Adak Island, Adak Airport
Date/Time
2023-02-03 18:56:00
Wind direction
260°
Wind speed
11 kts
Lowest cloud amount
scattered clouds
Temperature
1.7°C
Dew point
0.6°C
Humidity
92%
Weather condition
n/a

Description

Regional airport serving Adak, Alaska which is located on Adak Island in the Aleutian Island chain.

Climatology

Subpolar oceanic climate (Köppen climate classification Cfc) - moderate and fairly uniform temperatures and heavy rainfall. Fog is often present even when it is not raining. Summer weather is around 5 °F (2.8 °C) cooler than Southeast Alaska (Sitka), but the winter temperatures are nearly the same.

Runways

Designator Length Width Surface Rops
18/36 2318 61 ASPH-G Yes/Yes
5/23 2374 61 ASPH-G Yes/Yes

Airport map

Aerial View

SKYbrary Partners:

Safety knowledge contributed by: